sensor_id;sensor_type;location;lat;lon;timestamp;pressure;altitude;pressure_sealevel;temperature;humidity
12468;BME280;57850;52.922;6.256;2022-10-12T00:01:17;102849.66;;;9.97;100.00
12468;BME280;57850;52.922;6.256;2022-10-12T00:03:44;102854.03;;;9.98;100.00
12468;BME280;57850;52.922;6.256;2022-10-12T00:06:14;102858.34;;;9.87;100.00
12468;BME280;57850;52.922;6.256;2022-10-12T00:08:41;102854.06;;;9.67;100.00
12468;BME280;57850;52.922;6.256;2022-10-12T00:11:11;102847.97;;;9.64;100.00
12468;BME280;57850;52.922;6.256;2022-10-12T00:13:38;102848.84;;;9.74;100.00
12468;BME280;57850;52.922;6.256;2022-10-12T00:16:06;102847.09;;;9.79;100.00
12468;BME280;57850;52.922;6.256;2022-10-12T00:18:34;102834.91;;;9.79;100.00
12468;BME280;57850;52.922;6.256;2022-10-12T00:21:02;102840.13;;;9.75;100.00
12468;BME280;57850;52.922;6.256;2022-10-12T00:23:31;102834.03;;;9.82;100.00
12468;BME280;57850;52.922;6.256;2022-10-12T00:26:01;102841.88;;;9.79;100.00
12468;BME280;57850;52.922;6.256;2022-10-12T00:28:28;102834.94;;;9.76;100.00
12468;BME280;57850;52.922;6.256;2022-10-12T00:30:54;102830.56;;;9.72;100.00
12468;BME280;57850;52.922;6.256;2022-10-12T00:33:21;102832.34;;;9.61;100.00
12468;BME280;57850;52.922;6.256;2022-10-12T00:35:48;102831.47;;;9.60;100.00
12468;BME280;57850;52.922;6.256;2022-10-12T00:38:14;102834.06;;;9.45;100.00
12468;BME280;57850;52.922;6.256;2022-10-12T00:40:42;102828.84;;;9.47;100.00
12468;BME280;57850;52.922;6.256;2022-10-12T00:43:24;102835.78;;;9.31;100.00
12468;BME280;57850;52.922;6.256;2022-10-12T00:45:51;102827.09;;;9.40;100.00
12468;BME280;57850;52.922;6.256;2022-10-12T00:48:17;102824.50;;;9.56;100.00
12468;BME280;57850;52.922;6.256;2022-10-12T00:50:44;102825.38;;;9.66;100.00
12468;BME280;57850;52.922;6.256;2022-10-12T00:53:14;102829.69;;;9.68;100.00
12468;BME280;57850;52.922;6.256;2022-10-12T00:55:46;102839.25;;;9.47;100.00
12468;BME280;57850;52.922;6.256;2022-10-12T00:58:14;102834.94;;;9.49;100.00
12468;BME280;57850;52.922;6.256;2022-10-12T01:00:41;102823.63;;;9.68;100.00
12468;BME280;57850;52.922;6.256;2022-10-12T01:03:09;102832.31;;;9.70;100.00
12468;BME280;57850;52.922;6.256;2022-10-12T01:05:39;102839.25;;;9.59;100.00
12468;BME280;57850;52.922;6.256;2022-10-12T01:08:06;102834.06;;;9.69;100.00
12468;BME280;57850;52.922;6.256;2022-10-12T01:10:32;102833.19;;;9.63;100.00
12468;BME280;57850;52.922;6.256;2022-10-12T01:13:01;102843.63;;;9.66;100.00
12468;BME280;57850;52.922;6.256;2022-10-12T01:15:32;102835.81;;;9.71;100.00
12468;BME280;57850;52.922;6.256;2022-10-12T01:18:03;102840.16;;;9.64;100.00
12468;BME280;57850;52.922;6.256;2022-10-12T01:20:44;102831.44;;;9.86;100.00
12468;BME280;57850;52.922;6.256;2022-10-12T01:24:02;102812.22;;;10.28;100.00
12468;BME280;57850;52.922;6.256;2022-10-12T01:32:52;102821.84;;;9.94;100.00
12468;BME280;57850;52.922;6.256;2022-10-12T01:35:26;102820.97;;;9.97;100.00
12468;BME280;57850;52.922;6.256;2022-10-12T01:38:00;102815.78;;;10.01;100.00
12468;BME280;57850;52.922;6.256;2022-10-12T01:40:35;102814.88;;;9.99;100.00
12468;BME280;57850;52.922;6.256;2022-10-12T01:43:02;102808.81;;;9.97;100.00
12468;BME280;57850;52.922;6.256;2022-10-12T01:45:29;102807.97;;;9.95;100.00
12468;BME280;57850;52.922;6.256;2022-10-12T01:47:58;102796.66;;;9.93;100.00
12468;BME280;57850;52.922;6.256;2022-10-12T01:50:30;102792.28;;;10.07;100.00
12468;BME280;57850;52.922;6.256;2022-10-12T01:53:08;102784.47;;;10.21;100.00
12468;BME280;57850;52.922;6.256;2022-10-12T01:55:44;102779.19;;;10.30;100.00
12468;BME280;57850;52.922;6.256;2022-10-12T01:58:25;102769.56;;;10.46;100.00
12468;BME280;57850;52.922;6.256;2022-10-12T02:00:59;102764.44;;;10.26;100.00
12468;BME280;57850;52.922;6.256;2022-10-12T02:03:33;102766.19;;;10.16;100.00
12468;BME280;57850;52.922;6.256;2022-10-12T02:06:04;102771.44;;;10.01;100.00
12468;BME280;57850;52.922;6.256;2022-10-12T02:08:35;102758.38;;;10.07;100.00
12468;BME280;57850;52.922;6.256;2022-10-12T02:11:06;102760.09;;;10.11;100.00
12468;BME280;57850;52.922;6.256;2022-10-12T02:13:36;102759.25;;;10.03;100.00
12468;BME280;57850;52.922;6.256;2022-10-12T02:16:07;102766.22;;;10.00;100.00
12468;BME280;57850;52.922;6.256;2022-10-12T02:18:39;102767.09;;;10.00;100.00
12468;BME280;57850;52.922;6.256;2022-10-12T02:21:08;102769.72;;;9.87;100.00
12468;BME280;57850;52.922;6.256;2022-10-12T02:23:38;102766.25;;;9.92;100.00
12468;BME280;57850;52.922;6.256;2022-10-12T02:26:05;102765.38;;;9.89;100.00
12468;BME280;57850;52.922;6.256;2022-10-12T02:28:34;102757.53;;;9.90;100.00
12468;BME280;57850;52.922;6.256;2022-10-12T02:31:08;102754.94;;;9.90;100.00
12468;BME280;57850;52.922;6.256;2022-10-12T02:33:41;102750.63;;;9.83;100.00
12468;BME280;57850;52.922;6.256;2022-10-12T02:36:12;102754.09;;;9.85;100.00
12468;BME280;57850;52.922;6.256;2022-10-12T02:38:46;102748.00;;;9.82;100.00
12468;BME280;57850;52.922;6.256;2022-10-12T02:41:18;102738.50;;;9.70;100.00
12468;BME280;57850;52.922;6.256;2022-10-12T02:43:47;102743.66;;;9.84;100.00
12468;BME280;57850;52.922;6.256;2022-10-12T02:46:18;102729.75;;;9.85;100.00
12468;BME280;57850;52.922;6.256;2022-10-12T02:48:49;102733.25;;;9.75;100.00
12468;BME280;57850;52.922;6.256;2022-10-12T02:51:18;102738.47;;;9.73;100.00
12468;BME280;57850;52.922;6.256;2022-10-12T02:53:45;102737.59;;;9.71;100.00
12468;BME280;57850;52.922;6.256;2022-10-12T02:56:14;102730.69;;;9.67;100.00
12468;BME280;57850;52.922;6.256;2022-10-12T02:58:42;102726.38;;;9.48;100.00
12468;BME280;57850;52.922;6.256;2022-10-12T03:01:10;102725.50;;;9.49;100.00
12468;BME280;57850;52.922;6.256;2022-10-12T03:03:37;102722.88;;;9.53;100.00
12468;BME280;57850;52.922;6.256;2022-10-12T03:06:05;102721.13;;;9.52;100.00
12468;BME280;57850;52.922;6.256;2022-10-12T03:08:32;102720.28;;;9.40;100.00
12468;BME280;57850;52.922;6.256;2022-10-12T03:11:00;102722.03;;;9.41;100.00
12468;BME280;57850;52.922;6.256;2022-10-12T03:13:28;102727.25;;;9.36;100.00
12468;BME280;57850;52.922;6.256;2022-10-12T03:16:00;102724.66;;;9.23;100.00
12468;BME280;57850;52.922;6.256;2022-10-12T03:18:27;102721.19;;;9.14;100.00
12468;BME280;57850;52.922;6.256;2022-10-12T03:20:53;102722.03;;;9.44;100.00
12468;BME280;57850;52.922;6.256;2022-10-12T03:23:21;102719.44;;;9.38;100.00
12468;BME280;57850;52.922;6.256;2022-10-12T03:25:48;102713.34;;;9.39;100.00
12468;BME280;57850;52.922;6.256;2022-10-12T03:28:14;102691.66;;;9.26;100.00
12468;BME280;57850;52.922;6.256;2022-10-12T03:30:41;102681.25;;;9.26;100.00
12468;BME280;57850;52.922;6.256;2022-10-12T03:33:08;102693.38;;;9.18;100.00
12468;BME280;57850;52.922;6.256;2022-10-12T03:35:35;102697.75;;;9.27;100.00
12468;BME280;57850;52.922;6.256;2022-10-12T03:38:02;102693.41;;;9.23;100.00
12468;BME280;57850;52.922;6.256;2022-10-12T03:40:30;102686.44;;;9.22;100.00
12468;BME280;57850;52.922;6.256;2022-10-12T03:42:57;102683.81;;;9.44;100.00
12468;BME280;57850;52.922;6.256;2022-10-12T03:45:24;102674.25;;;9.45;100.00
12468;BME280;57850;52.922;6.256;2022-10-12T03:47:50;102678.63;;;9.43;100.00
12468;BME280;57850;52.922;6.256;2022-10-12T03:50:17;102679.50;;;9.36;100.00
12468;BME280;57850;52.922;6.256;2022-10-12T03:52:43;102689.94;;;9.24;100.00
12468;BME280;57850;52.922;6.256;2022-10-12T03:55:10;102669.91;;;9.51;100.00
12468;BME280;57850;52.922;6.256;2022-10-12T03:57:39;102666.44;;;9.37;100.00
12468;BME280;57850;52.922;6.256;2022-10-12T04:00:06;102684.69;;;9.42;100.00
12468;BME280;57850;52.922;6.256;2022-10-12T04:02:33;102680.38;;;9.30;100.00
12468;BME280;57850;52.922;6.256;2022-10-12T04:05:00;102672.53;;;9.45;100.00
12468;BME280;57850;52.922;6.256;2022-10-12T04:07:27;102670.75;;;9.53;100.00
12468;BME280;57850;52.922;6.256;2022-10-12T04:09:54;102684.69;;;9.48;100.00
12468;BME280;57850;52.922;6.256;2022-10-12T04:12:20;102695.97;;;9.41;100.00
12468;BME280;57850;52.922;6.256;2022-10-12T04:14:48;102683.81;;;9.50;100.00
12468;BME280;57850;52.922;6.256;2022-10-12T04:17:15;102682.91;;;9.59;100.00
12468;BME280;57850;52.922;6.256;2022-10-12T04:19:42;102682.94;;;9.48;100.00
12468;BME280;57850;52.922;6.256;2022-10-12T04:22:08;102682.03;;;9.64;100.00
12468;BME280;57850;52.922;6.256;2022-10-12T04:24:35;102686.41;;;9.58;100.00
12468;BME280;57850;52.922;6.256;2022-10-12T04:27:02;102671.66;;;9.51;100.00
12468;BME280;57850;52.922;6.256;2022-10-12T04:29:29;102651.63;;;9.62;100.00
12468;BME280;57850;52.922;6.256;2022-10-12T04:31:56;102644.66;;;9.65;100.00
12468;BME280;57850;52.922;6.256;2022-10-12T04:34:23;102642.94;;;9.63;100.00
12468;BME280;57850;52.922;6.256;2022-10-12T04:36:50;102642.97;;;9.54;100.00
12468;BME280;57850;52.922;6.256;2022-10-12T04:39:16;102635.16;;;9.57;100.00
12468;BME280;57850;52.922;6.256;2022-10-12T04:41:43;102649.06;;;9.50;100.00
12468;BME280;57850;52.922;6.256;2022-10-12T04:44:09;102666.50;;;9.18;100.00
12468;BME280;57850;52.922;6.256;2022-10-12T04:46:36;102669.09;;;9.13;100.00
12468;BME280;57850;52.922;6.256;2022-10-12T04:49:04;102669.09;;;9.10;100.00
12468;BME280;57850;52.922;6.256;2022-10-12T04:51:30;102681.25;;;8.91;100.00
12468;BME280;57850;52.922;6.256;2022-10-12T04:53:58;102679.53;;;9.01;100.00
12468;BME280;57850;52.922;6.256;2022-10-12T04:56:24;102683.84;;;9.00;100.00
12468;BME280;57850;52.922;6.256;2022-10-12T04:58:51;102688.19;;;8.94;100.00
12468;BME280;57850;52.922;6.256;2022-10-12T05:01:17;102689.94;;;8.86;100.00
12468;BME280;57850;52.922;6.256;2022-10-12T05:03:44;102692.53;;;8.86;100.00
12468;BME280;57850;52.922;6.256;2022-10-12T05:06:12;102691.66;;;8.84;100.00
12468;BME280;57850;52.922;6.256;2022-10-12T05:08:38;102696.88;;;8.79;100.00
12468;BME280;57850;52.922;6.256;2022-10-12T05:11:05;102694.28;;;8.76;100.00
12468;BME280;57850;52.922;6.256;2022-10-12T05:13:32;102666.50;;;8.99;100.00
12468;BME280;57850;52.922;6.256;2022-10-12T05:15:59;102671.69;;;8.96;100.00
12468;BME280;57850;52.922;6.256;2022-10-12T05:18:25;102656.94;;;9.13;100.00
12468;BME280;57850;52.922;6.256;2022-10-12T05:20:52;102654.34;;;9.07;100.00
12468;BME280;57850;52.922;6.256;2022-10-12T05:23:20;102630.03;;;9.13;100.00
12468;BME280;57850;52.922;6.256;2022-10-12T05:25:46;102619.63;;;9.10;100.00
12468;BME280;57850;52.922;6.256;2022-10-12T05:28:13;102613.56;;;9.00;100.00
12468;BME280;57850;52.922;6.256;2022-10-12T05:30:39;102601.41;;;9.04;100.00
12468;BME280;57850;52.922;6.256;2022-10-12T05:33:06;102610.97;;;9.11;100.00
12468;BME280;57850;52.922;6.256;2022-10-12T05:35:33;102603.06;;;9.31;100.00
12468;BME280;57850;52.922;6.256;2022-10-12T05:37:59;102607.41;;;9.41;100.00
12468;BME280;57850;52.922;6.256;2022-10-12T05:40:27;102617.88;;;9.17;100.00
12468;BME280;57850;52.922;6.256;2022-10-12T05:42:54;102610.03;;;9.21;100.00
12468;BME280;57850;52.922;6.256;2022-10-12T05:45:20;102625.69;;;9.13;100.00
12468;BME280;57850;52.922;6.256;2022-10-12T05:47:47;102629.19;;;9.06;100.00
12468;BME280;57850;52.922;6.256;2022-10-12T05:50:13;102640.47;;;8.84;100.00
12468;BME280;57850;52.922;6.256;2022-10-12T05:52:40;102631.78;;;9.00;100.00
12468;BME280;57850;52.922;6.256;2022-10-12T05:55:07;102624.00;;;9.02;100.00
12468;BME280;57850;52.922;6.256;2022-10-12T05:57:35;102623.97;;;8.96;100.00
12468;BME280;57850;52.922;6.256;2022-10-12T06:00:04;102617.06;;;8.71;100.00
12468;BME280;57850;52.922;6.256;2022-10-12T06:02:31;102611.88;;;8.77;100.00
12468;BME280;57850;52.922;6.256;2022-10-12T06:04:58;102618.78;;;8.81;100.00
12468;BME280;57850;52.922;6.256;2022-10-12T06:07:25;102609.25;;;8.75;100.00
12468;BME280;57850;52.922;6.256;2022-10-12T06:09:52;102608.38;;;8.47;100.00
12468;BME280;57850;52.922;6.256;2022-10-12T06:12:19;102594.50;;;8.50;100.00
12468;BME280;57850;52.922;6.256;2022-10-12T06:14:47;102597.13;;;8.51;100.00
12468;BME280;57850;52.922;6.256;2022-10-12T06:17:13;102595.38;;;8.61;100.00
12468;BME280;57850;52.922;6.256;2022-10-12T06:19:40;102592.75;;;8.69;100.00
12468;BME280;57850;52.922;6.256;2022-10-12T06:22:06;102596.22;;;8.61;100.00
12468;BME280;57850;52.922;6.256;2022-10-12T06:24:33;102591.03;;;8.75;100.00
12468;BME280;57850;52.922;6.256;2022-10-12T06:27:00;102593.63;;;8.61;100.00
12468;BME280;57850;52.922;6.256;2022-10-12T06:29:26;102593.63;;;8.46;100.00
12468;BME280;57850;52.922;6.256;2022-10-12T06:31:54;102590.16;;;8.69;100.00
12468;BME280;57850;52.922;6.256;2022-10-12T06:34:21;102579.78;;;8.55;100.00
12468;BME280;57850;52.922;6.256;2022-10-12T06:36:47;102577.16;;;8.63;100.00
12468;BME280;57850;52.922;6.256;2022-10-12T06:39:14;102577.19;;;8.58;100.00
12468;BME280;57850;52.922;6.256;2022-10-12T06:41:41;102573.69;;;8.76;100.00
12468;BME280;57850;52.922;6.256;2022-10-12T06:44:07;102585.81;;;8.78;100.00
12468;BME280;57850;52.922;6.256;2022-10-12T06:46:34;102584.97;;;8.76;100.00
12468;BME280;57850;52.922;6.256;2022-10-12T06:49:02;102591.91;;;8.89;100.00
12468;BME280;57850;52.922;6.256;2022-10-12T06:51:29;102592.75;;;8.87;100.00
12468;BME280;57850;52.922;6.256;2022-10-12T06:53:56;102591.88;;;8.77;100.00
12468;BME280;57850;52.922;6.256;2022-10-12T06:56:22;102597.94;;;9.08;100.00
12468;BME280;57850;52.922;6.256;2022-10-12T06:58:53;102601.41;;;8.99;100.00
12468;BME280;57850;52.922;6.256;2022-10-12T07:01:19;102605.75;;;9.17;100.00
12468;BME280;57850;52.922;6.256;2022-10-12T07:03:46;102611.78;;;9.11;100.00
12468;BME280;57850;52.922;6.256;2022-10-12T07:06:14;102597.03;;;9.20;100.00
12468;BME280;57850;52.922;6.256;2022-10-12T07:08:40;102598.78;;;9.21;100.00
12468;BME280;57850;52.922;6.256;2022-10-12T07:11:09;102593.44;;;9.52;100.00
12468;BME280;57850;52.922;6.256;2022-10-12T07:13:36;102609.81;;;9.88;100.00
12468;BME280;57850;52.922;6.256;2022-10-12T07:16:04;102628.06;;;9.92;100.00
12468;BME280;57850;52.922;6.256;2022-10-12T07:18:30;102635.75;;;10.18;100.00
12468;BME280;57850;52.922;6.256;2022-10-12T07:20:58;102640.19;;;10.01;100.00
12468;BME280;57850;52.922;6.256;2022-10-12T07:23:28;102629.75;;;9.96;100.00
12468;BME280;57850;52.922;6.256;2022-10-12T07:25:55;102629.78;;;9.95;100.00
12468;BME280;57850;52.922;6.256;2022-10-12T07:28:21;102619.28;;;10.02;100.00
12468;BME280;57850;52.922;6.256;2022-10-12T07:30:48;102601.03;;;10.14;100.00
12468;BME280;57850;52.922;6.256;2022-10-12T07:33:15;102588.81;;;10.12;100.00
12468;BME280;57850;52.922;6.256;2022-10-12T07:35:41;102585.22;;;10.36;100.00
12468;BME280;57850;52.922;6.256;2022-10-12T07:38:08;102585.28;;;10.25;100.00
12468;BME280;57850;52.922;6.256;2022-10-12T07:40:36;102572.34;;;10.08;100.00
12468;BME280;57850;52.922;6.256;2022-10-12T07:43:03;102567.13;;;10.02;100.00
12468;BME280;57850;52.922;6.256;2022-10-12T07:45:30;102560.91;;;10.28;100.00
12468;BME280;57850;52.922;6.256;2022-10-12T07:47:58;102562.69;;;10.24;100.00
12468;BME280;57850;52.922;6.256;2022-10-12T07:50:24;102562.72;;;10.18;100.00
12468;BME280;57850;52.922;6.256;2022-10-12T07:52:51;102564.47;;;10.16;100.00
12468;BME280;57850;52.922;6.256;2022-10-12T07:55:17;102549.44;;;10.50;100.00
12468;BME280;57850;52.922;6.256;2022-10-12T07:57:45;102557.97;;;10.68;100.00
12468;BME280;57850;52.922;6.256;2022-10-12T08:00:12;102569.34;;;10.63;100.00
12468;BME280;57850;52.922;6.256;2022-10-12T08:02:39;102579.47;;;10.93;100.00
12468;BME280;57850;52.922;6.256;2022-10-12T08:05:06;102589.94;;;10.96;100.00
12468;BME280;57850;52.922;6.256;2022-10-12T08:07:33;102609.97;;;10.91;100.00
12468;BME280;57850;52.922;6.256;2022-10-12T08:10:00;102606.50;;;10.91;100.00
12468;BME280;57850;52.922;6.256;2022-10-12T08:12:27;102615.72;;;11.25;100.00
12468;BME280;57850;52.922;6.256;2022-10-12T08:14:54;102623.50;;;11.31;100.00
12468;BME280;57850;52.922;6.256;2022-10-12T08:17:21;102628.78;;;11.26;100.00
12468;BME280;57850;52.922;6.256;2022-10-12T08:19:47;102629.59;;;11.33;100.00
12468;BME280;57850;52.922;6.256;2022-10-12T08:22:14;102633.25;;;11.17;100.00
12468;BME280;57850;52.922;6.256;2022-10-12T08:24:40;102634.91;;;12.00;100.00
12468;BME280;57850;52.922;6.256;2022-10-12T08:27:07;102665.84;;;12.90;100.00
12468;BME280;57850;52.922;6.256;2022-10-12T08:29:34;102708.56;;;13.47;100.00
12468;BME280;57850;52.922;6.256;2022-10-12T08:32:02;102723.47;;;14.34;100.00
12468;BME280;57850;52.922;6.256;2022-10-12T08:34:29;102719.72;;;14.82;100.00
12468;BME280;57850;52.922;6.256;2022-10-12T08:36:56;102730.03;;;15.93;100.00
12468;BME280;57850;52.922;6.256;2022-10-12T08:39:23;102735.28;;;15.62;100.00
12468;BME280;57850;52.922;6.256;2022-10-12T08:41:57;102740.00;;;15.82;100.00
12468;BME280;57850;52.922;6.256;2022-10-12T08:44:50;102737.09;;;16.22;100.00
12468;BME280;57850;52.922;6.256;2022-10-12T08:47:32;102738.88;;;16.20;100.00
12468;BME280;57850;52.922;6.256;2022-10-12T08:50:01;102736.44;;;16.14;100.00
12468;BME280;57850;52.922;6.256;2022-10-12T08:52:33;102726.97;;;17.45;100.00
12468;BME280;57850;52.922;6.256;2022-10-12T08:55:06;102717.94;;;17.26;100.00
12468;BME280;57850;52.922;6.256;2022-10-12T08:57:41;102714.13;;;18.32;100.00
12468;BME280;57850;52.922;6.256;2022-10-12T09:00:12;102709.41;;;17.94;100.00
12468;BME280;57850;52.922;6.256;2022-10-12T09:02:54;102717.47;;;16.61;100.00
12468;BME280;57850;52.922;6.256;2022-10-12T09:05:28;102720.38;;;16.80;100.00
12468;BME280;57850;52.922;6.256;2022-10-12T09:08:02;102719.75;;;16.44;100.00
12468;BME280;57850;52.922;6.256;2022-10-12T09:10:43;102709.38;;;17.71;100.00
12468;BME280;57850;52.922;6.256;2022-10-12T09:13:20;102678.81;;;19.40;100.00
12468;BME280;57850;52.922;6.256;2022-10-12T09:15:55;102685.72;;;19.44;100.00
12468;BME280;57850;52.922;6.256;2022-10-12T09:18:30;102676.84;;;19.23;100.00
12468;BME280;57850;52.922;6.256;2022-10-12T09:20:59;102655.81;;;19.20;100.00
12468;BME280;57850;52.922;6.256;2022-10-12T09:23:30;102650.91;;;19.91;100.00
12468;BME280;57850;52.922;6.256;2022-10-12T09:26:02;102683.53;;;18.92;100.00
12468;BME280;57850;52.922;6.256;2022-10-12T09:28:35;102654.78;;;20.75;100.00
12468;BME280;57850;52.922;6.256;2022-10-12T09:31:16;102649.47;;;20.75;100.00
12468;BME280;57850;52.922;6.256;2022-10-12T09:33:51;102669.47;;;19.32;100.00
12468;BME280;57850;52.922;6.256;2022-10-12T09:36:21;102668.31;;;20.15;100.00
12468;BME280;57850;52.922;6.256;2022-10-12T09:38:48;102655.59;;;21.12;100.00
12468;BME280;57850;52.922;6.256;2022-10-12T09:41:19;102644.28;;;21.25;100.00
12468;BME280;57850;52.922;6.256;2022-10-12T09:43:48;102652.06;;;20.41;100.00
12468;BME280;57850;52.922;6.256;2022-10-12T09:46:18;102585.53;;;23.16;100.00
12468;BME280;57850;52.922;6.256;2022-10-12T09:48:56;102607.56;;;22.45;100.00
12468;BME280;57850;52.922;6.256;2022-10-12T09:51:23;102633.22;;;21.17;100.00
12468;BME280;57850;52.922;6.256;2022-10-12T09:53:50;102641.97;;;19.93;100.00
12468;BME280;57850;52.922;6.256;2022-10-12T09:56:23;102639.81;;;19.44;100.00
12468;BME280;57850;52.922;6.256;2022-10-12T09:58:55;102622.66;;;20.46;100.00
12468;BME280;57850;52.922;6.256;2022-10-12T10:01:23;102646.25;;;20.14;100.00
12468;BME280;57850;52.922;6.256;2022-10-12T10:04:07;102604.13;;;22.58;100.00
12468;BME280;57850;52.922;6.256;2022-10-12T10:06:35;102600.09;;;22.51;100.00
12468;BME280;57850;52.922;6.256;2022-10-12T10:09:02;102590.94;;;22.25;100.00
12468;BME280;57850;52.922;6.256;2022-10-12T10:11:29;102627.63;;;20.88;100.00
12468;BME280;57850;52.922;6.256;2022-10-12T10:13:59;102628.00;;;21.49;100.00
12468;BME280;57850;52.922;6.256;2022-10-12T10:16:27;102574.53;;;22.78;100.00
12468;BME280;57850;52.922;6.256;2022-10-12T10:18:56;102553.56;;;23.16;100.00
12468;BME280;57850;52.922;6.256;2022-10-12T10:21:27;102522.06;;;24.33;100.00
12468;BME280;57850;52.922;6.256;2022-10-12T10:23:57;102541.50;;;23.39;100.00
12468;BME280;57850;52.922;6.256;2022-10-12T10:26:26;102573.06;;;23.31;100.00
12468;BME280;57850;52.922;6.256;2022-10-12T10:28:57;102536.19;;;24.60;100.00
12468;BME280;57850;52.922;6.256;2022-10-12T10:31:25;102530.97;;;23.78;100.00
12468;BME280;57850;52.922;6.256;2022-10-12T10:34:12;102542.81;;;23.32;100.00
12468;BME280;57850;52.922;6.256;2022-10-12T10:36:45;102525.63;;;23.92;100.00
12468;BME280;57850;52.922;6.256;2022-10-12T10:39:19;102586.22;;;22.15;100.00
12468;BME280;57850;52.922;6.256;2022-10-12T10:41:47;102557.75;;;23.34;100.00
12468;BME280;57850;52.922;6.256;2022-10-12T10:44:28;102547.97;;;23.63;100.00
12468;BME280;57850;52.922;6.256;2022-10-12T10:46:57;102467.75;;;24.07;100.00
12468;BME280;57850;52.922;6.256;2022-10-12T10:49:32;102489.63;;;23.85;100.00
12468;BME280;57850;52.922;6.256;2022-10-12T10:52:03;102459.91;;;23.91;100.00
12468;BME280;57850;52.922;6.256;2022-10-12T10:54:33;102465.47;;;24.28;100.00
12468;BME280;57850;52.922;6.256;2022-10-12T10:57:05;102495.66;;;23.75;100.00
12468;BME280;57850;52.922;6.256;2022-10-12T10:59:46;102396.72;;;26.02;100.00
12468;BME280;57850;52.922;6.256;2022-10-12T11:02:29;102517.91;;;23.61;100.00
12468;BME280;57850;52.922;6.256;2022-10-12T11:05:03;102435.16;;;25.04;100.00
12468;BME280;57850;52.922;6.256;2022-10-12T11:07:36;102487.72;;;24.79;100.00
12468;BME280;57850;52.922;6.256;2022-10-12T11:10:14;102530.81;;;24.35;100.00
12468;BME280;57850;52.922;6.256;2022-10-12T11:12:44;102409.69;;;25.24;99.93
12468;BME280;57850;52.922;6.256;2022-10-12T11:15:18;102299.59;;;27.22;96.49
12468;BME280;57850;52.922;6.256;2022-10-12T11:17:48;102539.88;;;23.65;100.00
12468;BME280;57850;52.922;6.256;2022-10-12T11:20:28;102432.31;;;24.82;99.05
12468;BME280;57850;52.922;6.256;2022-10-12T11:23:00;102527.63;;;23.20;100.00
12468;BME280;57850;52.922;6.256;2022-10-12T11:25:31;102447.53;;;23.64;98.84
12468;BME280;57850;52.922;6.256;2022-10-12T11:28:00;102522.16;;;22.79;100.00
12468;BME280;57850;52.922;6.256;2022-10-12T11:30:30;102356.50;;;25.09;97.33
12468;BME280;57850;52.922;6.256;2022-10-12T11:33:05;102402.28;;;24.28;97.80
12468;BME280;57850;52.922;6.256;2022-10-12T11:35:35;102369.94;;;24.45;96.65
12468;BME280;57850;52.922;6.256;2022-10-12T11:38:06;102416.88;;;23.30;97.07
12468;BME280;57850;52.922;6.256;2022-10-12T11:40:40;102483.84;;;22.81;99.52
12468;BME280;57850;52.922;6.256;2022-10-12T11:43:13;102364.50;;;23.70;96.01
12468;BME280;57850;52.922;6.256;2022-10-12T11:45:43;102381.06;;;23.87;96.33
12468;BME280;57850;52.922;6.256;2022-10-12T11:48:14;102379.53;;;24.73;97.20
12468;BME280;57850;52.922;6.256;2022-10-12T11:50:44;102356.25;;;24.50;95.99
12468;BME280;57850;52.922;6.256;2022-10-12T11:53:20;102381.31;;;23.58;95.63
12468;BME280;57850;52.922;6.256;2022-10-12T11:55:57;102206.72;;;26.13;91.96
12468;BME280;57850;52.922;6.256;2022-10-12T11:58:28;102260.25;;;26.13;93.38
12468;BME280;57850;52.922;6.256;2022-10-12T12:01:04;102267.00;;;25.38;93.02
12468;BME280;57850;52.922;6.256;2022-10-12T12:04:01;102347.69;;;23.42;94.14
12468;BME280;57850;52.922;6.256;2022-10-12T12:06:51;102333.75;;;24.54;94.81
12468;BME280;57850;52.922;6.256;2022-10-12T12:09:28;102232.13;;;25.04;91.95
12468;BME280;57850;52.922;6.256;2022-10-12T12:12:10;102314.41;;;23.87;93.74
12468;BME280;57850;52.922;6.256;2022-10-12T12:17:27;102307.88;;;23.66;92.72
12468;BME280;57850;52.922;6.256;2022-10-12T12:19:55;102253.16;;;24.85;92.12
12468;BME280;57850;52.922;6.256;2022-10-12T12:22:46;102380.13;;;22.52;94.88
12468;BME280;57850;52.922;6.256;2022-10-12T12:25:19;102274.56;;;25.68;94.15
12468;BME280;57850;52.922;6.256;2022-10-12T12:27:50;102249.47;;;25.58;93.10
12468;BME280;57850;52.922;6.256;2022-10-12T12:30:35;102337.34;;;23.77;94.63
12468;BME280;57850;52.922;6.256;2022-10-12T12:33:17;102219.19;;;25.22;91.55
12468;BME280;57850;52.922;6.256;2022-10-12T12:35:52;102250.72;;;25.76;93.48
12468;BME280;57850;52.922;6.256;2022-10-12T12:38:23;102218.16;;;25.36;92.08
12468;BME280;57850;52.922;6.256;2022-10-12T12:41:04;102141.38;;;25.38;89.38
12468;BME280;57850;52.922;6.256;2022-10-12T12:43:53;102123.53;;;26.27;89.16
12468;BME280;57850;52.922;6.256;2022-10-12T12:46:21;102136.28;;;25.35;88.96
12468;BME280;57850;52.922;6.256;2022-10-12T12:48:59;102139.63;;;25.49;89.13
12468;BME280;57850;52.922;6.256;2022-10-12T12:51:35;102149.94;;;25.76;89.97
12468;BME280;57850;52.922;6.256;2022-10-12T12:54:04;102147.78;;;25.59;89.68
12468;BME280;57850;52.922;6.256;2022-10-12T12:56:39;102107.19;;;25.65;88.15
12468;BME280;57850;52.922;6.256;2022-10-12T12:59:37;102162.94;;;24.18;89.24
12468;BME280;57850;52.922;6.256;2022-10-12T13:02:41;102232.16;;;23.69;90.99
12468;BME280;57850;52.922;6.256;2022-10-12T13:08:34;102183.16;;;25.74;90.71
12468;BME280;57850;52.922;6.256;2022-10-12T13:11:24;102230.34;;;23.69;90.78
12468;BME280;57850;52.922;6.256;2022-10-12T13:14:00;102265.13;;;23.68;92.01